sensor_id;sensor_type;location;lat;lon;timestamp;P1;durP1;ratioP1;P2;durP2;ratioP2
3704;SDS011;1868;48.918;9.438;2023-05-07T00:01:24;3.87;;;3.33;;
3704;SDS011;1868;48.918;9.438;2023-05-07T00:03:53;6.03;;;3.67;;
3704;SDS011;1868;48.918;9.438;2023-05-07T00:06:23;4.20;;;3.80;;
3704;SDS011;1868;48.918;9.438;2023-05-07T00:08:53;5.53;;;3.97;;
3704;SDS011;1868;48.918;9.438;2023-05-07T00:11:23;5.40;;;3.40;;
3704;SDS011;1868;48.918;9.438;2023-05-07T00:13:54;4.03;;;3.67;;
3704;SDS011;1868;48.918;9.438;2023-05-07T00:16:25;3.90;;;3.20;;
3704;SDS011;1868;48.918;9.438;2023-05-07T00:18:54;4.80;;;3.37;;
3704;SDS011;1868;48.918;9.438;2023-05-07T00:21:23;5.87;;;3.20;;
3704;SDS011;1868;48.918;9.438;2023-05-07T00:23:54;6.57;;;3.70;;
3704;SDS011;1868;48.918;9.438;2023-05-07T00:26:25;3.23;;;2.97;;
3704;SDS011;1868;48.918;9.438;2023-05-07T00:28:55;3.20;;;3.00;;
3704;SDS011;1868;48.918;9.438;2023-05-07T00:31:29;6.07;;;3.70;;
3704;SDS011;1868;48.918;9.438;2023-05-07T00:33:59;3.20;;;3.00;;
3704;SDS011;1868;48.918;9.438;2023-05-07T00:36:28;4.70;;;3.30;;
3704;SDS011;1868;48.918;9.438;2023-05-07T00:38:58;4.93;;;3.10;;
3704;SDS011;1868;48.918;9.438;2023-05-07T00:41:30;4.50;;;3.57;;
3704;SDS011;1868;48.918;9.438;2023-05-07T00:43:59;5.00;;;3.30;;
3704;SDS011;1868;48.918;9.438;2023-05-07T00:46:30;4.77;;;3.50;;
3704;SDS011;1868;48.918;9.438;2023-05-07T00:49:00;6.40;;;3.27;;
3704;SDS011;1868;48.918;9.438;2023-05-07T00:51:30;4.63;;;2.97;;
3704;SDS011;1868;48.918;9.438;2023-05-07T00:53:59;3.10;;;2.90;;
3704;SDS011;1868;48.918;9.438;2023-05-07T00:56:32;4.40;;;2.93;;
3704;SDS011;1868;48.918;9.438;2023-05-07T00:59:02;2.80;;;2.60;;
3704;SDS011;1868;48.918;9.438;2023-05-07T01:01:33;2.97;;;2.30;;
3704;SDS011;1868;48.918;9.438;2023-05-07T01:04:03;3.27;;;2.23;;
3704;SDS011;1868;48.918;9.438;2023-05-07T01:06:33;3.47;;;2.00;;
3704;SDS011;1868;48.918;9.438;2023-05-07T01:09:04;2.30;;;2.20;;
3704;SDS011;1868;48.918;9.438;2023-05-07T01:11:35;3.47;;;2.07;;
3704;SDS011;1868;48.918;9.438;2023-05-07T01:14:04;1.90;;;1.80;;
3704;SDS011;1868;48.918;9.438;2023-05-07T01:16:36;3.97;;;2.00;;
3704;SDS011;1868;48.918;9.438;2023-05-07T01:19:11;1.80;;;1.70;;
3704;SDS011;1868;48.918;9.438;2023-05-07T01:21:43;1.80;;;1.70;;
3704;SDS011;1868;48.918;9.438;2023-05-07T01:24:19;1.63;;;1.53;;
3704;SDS011;1868;48.918;9.438;2023-05-07T01:26:49;1.60;;;1.50;;
3704;SDS011;1868;48.918;9.438;2023-05-07T01:29:18;2.63;;;2.40;;
3704;SDS011;1868;48.918;9.438;2023-05-07T01:31:50;2.00;;;1.90;;
3704;SDS011;1868;48.918;9.438;2023-05-07T01:34:21;3.17;;;1.83;;
3704;SDS011;1868;48.918;9.438;2023-05-07T01:36:50;3.63;;;1.70;;
3704;SDS011;1868;48.918;9.438;2023-05-07T01:39:25;3.00;;;2.03;;
3704;SDS011;1868;48.918;9.438;2023-05-07T01:42:01;2.80;;;2.27;;
3704;SDS011;1868;48.918;9.438;2023-05-07T01:44:31;2.00;;;1.90;;
3704;SDS011;1868;48.918;9.438;2023-05-07T01:47:03;2.13;;;1.93;;
3704;SDS011;1868;48.918;9.438;2023-05-07T01:49:35;3.97;;;2.37;;
3704;SDS011;1868;48.918;9.438;2023-05-07T01:52:03;2.73;;;2.50;;
3704;SDS011;1868;48.918;9.438;2023-05-07T01:54:34;2.50;;;2.30;;
3704;SDS011;1868;48.918;9.438;2023-05-07T01:57:04;3.83;;;3.00;;
3704;SDS011;1868;48.918;9.438;2023-05-07T01:59:39;3.80;;;2.47;;
3704;SDS011;1868;48.918;9.438;2023-05-07T02:02:07;3.70;;;3.17;;
3704;SDS011;1868;48.918;9.438;2023-05-07T02:04:39;2.47;;;2.30;;
3704;SDS011;1868;48.918;9.438;2023-05-07T02:07:09;2.77;;;2.43;;
3704;SDS011;1868;48.918;9.438;2023-05-07T02:09:40;3.10;;;2.80;;
3704;SDS011;1868;48.918;9.438;2023-05-07T02:12:11;3.07;;;2.57;;
3704;SDS011;1868;48.918;9.438;2023-05-07T02:14:41;2.80;;;2.60;;
3704;SDS011;1868;48.918;9.438;2023-05-07T02:17:11;2.50;;;2.30;;
3704;SDS011;1868;48.918;9.438;2023-05-07T02:19:41;2.90;;;2.70;;
3704;SDS011;1868;48.918;9.438;2023-05-07T02:22:12;3.03;;;2.73;;
3704;SDS011;1868;48.918;9.438;2023-05-07T02:24:45;4.33;;;3.10;;
3704;SDS011;1868;48.918;9.438;2023-05-07T02:27:15;5.83;;;3.00;;
3704;SDS011;1868;48.918;9.438;2023-05-07T02:29:44;5.10;;;2.57;;
3704;SDS011;1868;48.918;9.438;2023-05-07T02:32:14;3.10;;;2.40;;
3704;SDS011;1868;48.918;9.438;2023-05-07T02:34:44;11.77;;;8.17;;
3704;SDS011;1868;48.918;9.438;2023-05-07T02:37:13;10.13;;;6.33;;
3704;SDS011;1868;48.918;9.438;2023-05-07T02:39:46;3.50;;;2.73;;
3704;SDS011;1868;48.918;9.438;2023-05-07T02:42:16;4.30;;;2.30;;
3704;SDS011;1868;48.918;9.438;2023-05-07T02:44:46;2.77;;;2.57;;
3704;SDS011;1868;48.918;9.438;2023-05-07T02:47:17;6.10;;;1.97;;
3704;SDS011;1868;48.918;9.438;2023-05-07T02:49:47;2.53;;;2.13;;
3704;SDS011;1868;48.918;9.438;2023-05-07T02:52:16;2.67;;;1.97;;
3704;SDS011;1868;48.918;9.438;2023-05-07T02:54:47;2.47;;;2.20;;
3704;SDS011;1868;48.918;9.438;2023-05-07T02:57:19;3.47;;;2.17;;
3704;SDS011;1868;48.918;9.438;2023-05-07T02:59:50;2.50;;;2.30;;
3704;SDS011;1868;48.918;9.438;2023-05-07T03:02:20;5.10;;;2.37;;
3704;SDS011;1868;48.918;9.438;2023-05-07T03:04:48;2.90;;;2.67;;
3704;SDS011;1868;48.918;9.438;2023-05-07T03:07:20;2.10;;;1.83;;
3704;SDS011;1868;48.918;9.438;2023-05-07T03:09:52;2.07;;;1.97;;
3704;SDS011;1868;48.918;9.438;2023-05-07T03:12:22;3.67;;;2.07;;
3704;SDS011;1868;48.918;9.438;2023-05-07T03:14:52;2.53;;;2.17;;
3704;SDS011;1868;48.918;9.438;2023-05-07T03:17:22;4.87;;;2.57;;
3704;SDS011;1868;48.918;9.438;2023-05-07T03:19:51;3.03;;;1.80;;
3704;SDS011;1868;48.918;9.438;2023-05-07T03:22:20;3.00;;;2.00;;
3704;SDS011;1868;48.918;9.438;2023-05-07T03:24:50;2.17;;;1.97;;
3704;SDS011;1868;48.918;9.438;2023-05-07T03:27:19;2.20;;;2.10;;
3704;SDS011;1868;48.918;9.438;2023-05-07T03:29:51;1.80;;;1.70;;
3704;SDS011;1868;48.918;9.438;2023-05-07T03:32:21;2.30;;;1.80;;
3704;SDS011;1868;48.918;9.438;2023-05-07T03:34:50;1.90;;;1.80;;
3704;SDS011;1868;48.918;9.438;2023-05-07T03:37:20;1.87;;;1.77;;
3704;SDS011;1868;48.918;9.438;2023-05-07T03:39:52;2.30;;;2.10;;
3704;SDS011;1868;48.918;9.438;2023-05-07T03:42:20;2.50;;;2.30;;
3704;SDS011;1868;48.918;9.438;2023-05-07T03:44:51;3.10;;;1.90;;
3704;SDS011;1868;48.918;9.438;2023-05-07T03:47:20;2.47;;;2.17;;
3704;SDS011;1868;48.918;9.438;2023-05-07T03:49:51;2.00;;;1.90;;
3704;SDS011;1868;48.918;9.438;2023-05-07T03:52:23;1.77;;;1.67;;
3704;SDS011;1868;48.918;9.438;2023-05-07T03:54:58;2.10;;;1.93;;
3704;SDS011;1868;48.918;9.438;2023-05-07T03:57:32;2.30;;;2.10;;
3704;SDS011;1868;48.918;9.438;2023-05-07T04:00:03;2.00;;;1.90;;
3704;SDS011;1868;48.918;9.438;2023-05-07T04:02:45;2.43;;;2.23;;
3704;SDS011;1868;48.918;9.438;2023-05-07T04:05:24;2.60;;;2.40;;
3704;SDS011;1868;48.918;9.438;2023-05-07T04:07:59;4.70;;;2.07;;
3704;SDS011;1868;48.918;9.438;2023-05-07T04:10:39;1.60;;;1.50;;
3704;SDS011;1868;48.918;9.438;2023-05-07T04:13:10;4.53;;;2.00;;
3704;SDS011;1868;48.918;9.438;2023-05-07T04:15:40;1.73;;;1.63;;
3704;SDS011;1868;48.918;9.438;2023-05-07T04:18:12;2.27;;;2.17;;
3704;SDS011;1868;48.918;9.438;2023-05-07T04:20:44;2.17;;;1.90;;
3704;SDS011;1868;48.918;9.438;2023-05-07T04:23:14;3.67;;;2.20;;
3704;SDS011;1868;48.918;9.438;2023-05-07T04:25:45;2.50;;;2.13;;
3704;SDS011;1868;48.918;9.438;2023-05-07T04:28:21;3.27;;;2.07;;
3704;SDS011;1868;48.918;9.438;2023-05-07T04:30:51;3.47;;;2.37;;
3704;SDS011;1868;48.918;9.438;2023-05-07T04:33:20;2.73;;;2.53;;
3704;SDS011;1868;48.918;9.438;2023-05-07T04:35:51;2.97;;;2.27;;
3704;SDS011;1868;48.918;9.438;2023-05-07T04:38:20;4.30;;;2.50;;
3704;SDS011;1868;48.918;9.438;2023-05-07T04:40:53;8.10;;;2.70;;
3704;SDS011;1868;48.918;9.438;2023-05-07T04:43:26;10.40;;;3.07;;
3704;SDS011;1868;48.918;9.438;2023-05-07T04:45:56;10.57;;;3.20;;
3704;SDS011;1868;48.918;9.438;2023-05-07T04:48:28;6.00;;;3.17;;
3704;SDS011;1868;48.918;9.438;2023-05-07T04:50:59;3.30;;;2.40;;
3704;SDS011;1868;48.918;9.438;2023-05-07T04:53:28;2.80;;;2.23;;
3704;SDS011;1868;48.918;9.438;2023-05-07T04:55:58;9.10;;;2.50;;
3704;SDS011;1868;48.918;9.438;2023-05-07T04:58:38;2.90;;;2.30;;
3704;SDS011;1868;48.918;9.438;2023-05-07T05:01:09;4.27;;;2.30;;
3704;SDS011;1868;48.918;9.438;2023-05-07T05:03:41;2.30;;;2.17;;
3704;SDS011;1868;48.918;9.438;2023-05-07T05:06:11;4.30;;;2.60;;
3704;SDS011;1868;48.918;9.438;2023-05-07T05:08:44;2.27;;;2.17;;
3704;SDS011;1868;48.918;9.438;2023-05-07T05:11:14;4.47;;;2.23;;
3704;SDS011;1868;48.918;9.438;2023-05-07T05:13:43;3.13;;;2.13;;
3704;SDS011;1868;48.918;9.438;2023-05-07T05:16:19;2.70;;;2.00;;
3704;SDS011;1868;48.918;9.438;2023-05-07T05:18:52;2.60;;;1.97;;
3704;SDS011;1868;48.918;9.438;2023-05-07T05:21:21;3.07;;;2.30;;
3704;SDS011;1868;48.918;9.438;2023-05-07T05:23:57;2.57;;;2.10;;
3704;SDS011;1868;48.918;9.438;2023-05-07T05:26:28;3.33;;;2.03;;
3704;SDS011;1868;48.918;9.438;2023-05-07T05:28:58;3.37;;;1.70;;
3704;SDS011;1868;48.918;9.438;2023-05-07T05:31:29;3.23;;;1.83;;
3704;SDS011;1868;48.918;9.438;2023-05-07T05:34:04;3.47;;;2.10;;
3704;SDS011;1868;48.918;9.438;2023-05-07T05:36:36;2.00;;;1.90;;
3704;SDS011;1868;48.918;9.438;2023-05-07T05:39:06;3.57;;;2.03;;
3704;SDS011;1868;48.918;9.438;2023-05-07T05:41:38;2.10;;;2.00;;
3704;SDS011;1868;48.918;9.438;2023-05-07T05:44:07;2.20;;;2.00;;
3704;SDS011;1868;48.918;9.438;2023-05-07T05:46:39;1.70;;;1.60;;
3704;SDS011;1868;48.918;9.438;2023-05-07T05:49:09;3.00;;;1.80;;
3704;SDS011;1868;48.918;9.438;2023-05-07T05:51:41;2.60;;;1.77;;
3704;SDS011;1868;48.918;9.438;2023-05-07T05:54:12;4.73;;;2.10;;
3704;SDS011;1868;48.918;9.438;2023-05-07T05:56:43;2.20;;;2.10;;
3704;SDS011;1868;48.918;9.438;2023-05-07T05:59:13;3.10;;;2.73;;
3704;SDS011;1868;48.918;9.438;2023-05-07T06:01:42;4.50;;;2.70;;
3704;SDS011;1868;48.918;9.438;2023-05-07T06:04:11;3.13;;;2.23;;
3704;SDS011;1868;48.918;9.438;2023-05-07T06:06:40;4.60;;;2.97;;
3704;SDS011;1868;48.918;9.438;2023-05-07T06:09:10;2.13;;;2.03;;
3704;SDS011;1868;48.918;9.438;2023-05-07T06:11:44;3.40;;;2.23;;
3704;SDS011;1868;48.918;9.438;2023-05-07T06:14:12;12.33;;;2.10;;
3704;SDS011;1868;48.918;9.438;2023-05-07T06:16:43;2.83;;;2.00;;
3704;SDS011;1868;48.918;9.438;2023-05-07T06:19:14;2.10;;;2.00;;
3704;SDS011;1868;48.918;9.438;2023-05-07T06:21:45;4.17;;;1.80;;
3704;SDS011;1868;48.918;9.438;2023-05-07T06:24:14;1.90;;;1.80;;
3704;SDS011;1868;48.918;9.438;2023-05-07T06:26:44;8.00;;;4.60;;
3704;SDS011;1868;48.918;9.438;2023-05-07T06:29:15;5.13;;;2.60;;
3704;SDS011;1868;48.918;9.438;2023-05-07T06:31:46;3.63;;;2.17;;
3704;SDS011;1868;48.918;9.438;2023-05-07T06:34:18;4.30;;;2.00;;
3704;SDS011;1868;48.918;9.438;2023-05-07T06:36:47;2.93;;;2.03;;
3704;SDS011;1868;48.918;9.438;2023-05-07T06:39:27;1.70;;;1.60;;
3704;SDS011;1868;48.918;9.438;2023-05-07T06:41:57;3.70;;;2.33;;
3704;SDS011;1868;48.918;9.438;2023-05-07T06:44:30;5.80;;;1.60;;
3704;SDS011;1868;48.918;9.438;2023-05-07T06:47:09;4.13;;;2.40;;
3704;SDS011;1868;48.918;9.438;2023-05-07T06:49:43;6.30;;;2.20;;
3704;SDS011;1868;48.918;9.438;2023-05-07T06:52:15;7.00;;;2.00;;
3704;SDS011;1868;48.918;9.438;2023-05-07T06:54:47;2.57;;;2.27;;
3704;SDS011;1868;48.918;9.438;2023-05-07T06:57:23;1.87;;;1.77;;
3704;SDS011;1868;48.918;9.438;2023-05-07T06:59:52;1.93;;;1.80;;
3704;SDS011;1868;48.918;9.438;2023-05-07T07:02:21;4.67;;;2.27;;
3704;SDS011;1868;48.918;9.438;2023-05-07T07:04:50;4.23;;;2.00;;
3704;SDS011;1868;48.918;9.438;2023-05-07T07:07:20;1.57;;;1.43;;
3704;SDS011;1868;48.918;9.438;2023-05-07T07:09:50;1.77;;;1.67;;
3704;SDS011;1868;48.918;9.438;2023-05-07T07:12:18;2.13;;;1.70;;
3704;SDS011;1868;48.918;9.438;2023-05-07T07:14:50;1.30;;;1.30;;
3704;SDS011;1868;48.918;9.438;2023-05-07T07:17:21;2.50;;;1.73;;
3704;SDS011;1868;48.918;9.438;2023-05-07T07:19:51;1.90;;;1.77;;
3704;SDS011;1868;48.918;9.438;2023-05-07T07:22:20;8.17;;;6.43;;
3704;SDS011;1868;48.918;9.438;2023-05-07T07:24:50;10.53;;;8.93;;
3704;SDS011;1868;48.918;9.438;2023-05-07T07:27:19;2.10;;;2.00;;
3704;SDS011;1868;48.918;9.438;2023-05-07T07:29:50;3.30;;;1.50;;
3704;SDS011;1868;48.918;9.438;2023-05-07T07:32:19;1.20;;;1.20;;
3704;SDS011;1868;48.918;9.438;2023-05-07T07:34:48;1.00;;;1.00;;
3704;SDS011;1868;48.918;9.438;2023-05-07T07:37:17;1.40;;;1.30;;
3704;SDS011;1868;48.918;9.438;2023-05-07T07:39:48;1.17;;;1.07;;
3704;SDS011;1868;48.918;9.438;2023-05-07T07:42:18;1.37;;;1.23;;
3704;SDS011;1868;48.918;9.438;2023-05-07T07:44:49;2.77;;;0.90;;
3704;SDS011;1868;48.918;9.438;2023-05-07T07:47:21;1.30;;;1.20;;
3704;SDS011;1868;48.918;9.438;2023-05-07T07:49:52;1.93;;;1.00;;
3704;SDS011;1868;48.918;9.438;2023-05-07T07:52:23;1.00;;;1.00;;
3704;SDS011;1868;48.918;9.438;2023-05-07T07:54:52;4.10;;;1.37;;
3704;SDS011;1868;48.918;9.438;2023-05-07T07:57:21;2.97;;;1.50;;
3704;SDS011;1868;48.918;9.438;2023-05-07T07:59:52;3.93;;;0.90;;
3704;SDS011;1868;48.918;9.438;2023-05-07T08:02:21;3.10;;;1.17;;
3704;SDS011;1868;48.918;9.438;2023-05-07T08:04:51;1.13;;;0.80;;
3704;SDS011;1868;48.918;9.438;2023-05-07T08:07:24;1.80;;;1.00;;
3704;SDS011;1868;48.918;9.438;2023-05-07T08:09:53;3.80;;;1.47;;
3704;SDS011;1868;48.918;9.438;2023-05-07T08:12:23;2.40;;;1.57;;
3704;SDS011;1868;48.918;9.438;2023-05-07T08:14:55;6.13;;;1.33;;
3704;SDS011;1868;48.918;9.438;2023-05-07T08:17:25;1.40;;;1.40;;
3704;SDS011;1868;48.918;9.438;2023-05-07T08:19:55;1.30;;;1.10;;
3704;SDS011;1868;48.918;9.438;2023-05-07T08:22:24;1.13;;;1.13;;
3704;SDS011;1868;48.918;9.438;2023-05-07T08:24:55;2.60;;;1.60;;
3704;SDS011;1868;48.918;9.438;2023-05-07T08:27:25;2.50;;;1.60;;
3704;SDS011;1868;48.918;9.438;2023-05-07T08:30:00;1.63;;;1.30;;
3704;SDS011;1868;48.918;9.438;2023-05-07T08:32:30;2.10;;;1.53;;
3704;SDS011;1868;48.918;9.438;2023-05-07T08:35:00;1.67;;;1.57;;
3704;SDS011;1868;48.918;9.438;2023-05-07T08:37:29;2.17;;;1.17;;
3704;SDS011;1868;48.918;9.438;2023-05-07T08:40:01;1.13;;;1.03;;
3704;SDS011;1868;48.918;9.438;2023-05-07T08:42:41;2.40;;;1.03;;
3704;SDS011;1868;48.918;9.438;2023-05-07T08:45:13;1.03;;;1.03;;
3704;SDS011;1868;48.918;9.438;2023-05-07T08:47:48;1.17;;;1.00;;
3704;SDS011;1868;48.918;9.438;2023-05-07T08:50:30;1.43;;;1.13;;
3704;SDS011;1868;48.918;9.438;2023-05-07T08:53:04;1.90;;;1.20;;
3704;SDS011;1868;48.918;9.438;2023-05-07T08:55:34;1.30;;;1.20;;
3704;SDS011;1868;48.918;9.438;2023-05-07T08:58:03;1.40;;;1.30;;
3704;SDS011;1868;48.918;9.438;2023-05-07T09:00:38;1.10;;;1.00;;
3704;SDS011;1868;48.918;9.438;2023-05-07T09:03:08;1.33;;;0.93;;
3704;SDS011;1868;48.918;9.438;2023-05-07T09:05:42;1.90;;;1.10;;
3704;SDS011;1868;48.918;9.438;2023-05-07T09:08:14;1.43;;;1.20;;
3704;SDS011;1868;48.918;9.438;2023-05-07T09:10:46;2.87;;;0.87;;
3704;SDS011;1868;48.918;9.438;2023-05-07T09:13:20;1.13;;;0.90;;
3704;SDS011;1868;48.918;9.438;2023-05-07T09:15:53;3.70;;;1.00;;
3704;SDS011;1868;48.918;9.438;2023-05-07T09:18:24;0.63;;;0.63;;
3704;SDS011;1868;48.918;9.438;2023-05-07T09:20:55;1.17;;;1.07;;
3704;SDS011;1868;48.918;9.438;2023-05-07T09:23:24;3.67;;;1.10;;
3704;SDS011;1868;48.918;9.438;2023-05-07T09:25:53;1.23;;;0.90;;
3704;SDS011;1868;48.918;9.438;2023-05-07T09:28:32;1.07;;;0.97;;
3704;SDS011;1868;48.918;9.438;2023-05-07T09:31:03;2.00;;;0.90;;
3704;SDS011;1868;48.918;9.438;2023-05-07T09:33:33;2.50;;;1.10;;
3704;SDS011;1868;48.918;9.438;2023-05-07T09:36:03;1.00;;;1.00;;
3704;SDS011;1868;48.918;9.438;2023-05-07T09:38:35;1.13;;;1.03;;
3704;SDS011;1868;48.918;9.438;2023-05-07T09:41:08;1.13;;;1.10;;
3704;SDS011;1868;48.918;9.438;2023-05-07T09:44:03;1.13;;;1.00;;
3704;SDS011;1868;48.918;9.438;2023-05-07T09:46:41;0.80;;;0.80;;
3704;SDS011;1868;48.918;9.438;2023-05-07T09:49:20;3.20;;;1.10;;
3704;SDS011;1868;48.918;9.438;2023-05-07T09:52:01;1.47;;;0.90;;
3704;SDS011;1868;48.918;9.438;2023-05-07T09:54:43;1.47;;;0.80;;
3704;SDS011;1868;48.918;9.438;2023-05-07T09:57:15;0.83;;;0.80;;
3704;SDS011;1868;48.918;9.438;2023-05-07T09:59:51;1.30;;;1.20;;
3704;SDS011;1868;48.918;9.438;2023-05-07T10:02:23;3.40;;;1.03;;
3704;SDS011;1868;48.918;9.438;2023-05-07T10:04:55;0.87;;;0.87;;
3704;SDS011;1868;48.918;9.438;2023-05-07T10:07:30;1.30;;;0.87;;
3704;SDS011;1868;48.918;9.438;2023-05-07T10:10:05;1.77;;;1.00;;
3704;SDS011;1868;48.918;9.438;2023-05-07T10:12:40;0.90;;;0.90;;
3704;SDS011;1868;48.918;9.438;2023-05-07T10:15:15;2.43;;;0.80;;
3704;SDS011;1868;48.918;9.438;2023-05-07T10:17:51;1.20;;;1.10;;
3704;SDS011;1868;48.918;9.438;2023-05-07T10:20:23;1.00;;;0.67;;
3704;SDS011;1868;48.918;9.438;2023-05-07T10:22:57;1.57;;;1.07;;
3704;SDS011;1868;48.918;9.438;2023-05-07T10:25:35;2.33;;;2.20;;
3704;SDS011;1868;48.918;9.438;2023-05-07T10:28:14;3.63;;;3.33;;
3704;SDS011;1868;48.918;9.438;2023-05-07T10:30:52;0.73;;;0.73;;
3704;SDS011;1868;48.918;9.438;2023-05-07T10:33:38;1.00;;;0.93;;
3704;SDS011;1868;48.918;9.438;2023-05-07T10:36:09;2.67;;;0.70;;
3704;SDS011;1868;48.918;9.438;2023-05-07T10:38:38;0.90;;;0.73;;
3704;SDS011;1868;48.918;9.438;2023-05-07T10:41:09;0.80;;;0.80;;
3704;SDS011;1868;48.918;9.438;2023-05-07T10:43:42;1.00;;;0.87;;
3704;SDS011;1868;48.918;9.438;2023-05-07T10:46:33;0.90;;;0.90;;
3704;SDS011;1868;48.918;9.438;2023-05-07T10:49:11;0.73;;;0.73;;
3704;SDS011;1868;48.918;9.438;2023-05-07T10:52:13;2.00;;;0.90;;
3704;SDS011;1868;48.918;9.438;2023-05-07T10:55:21;2.10;;;2.00;;
3704;SDS011;1868;48.918;9.438;2023-05-07T10:58:22;1.90;;;1.77;;
3704;SDS011;1868;48.918;9.438;2023-05-07T11:01:49;1.83;;;1.10;;
3704;SDS011;1868;48.918;9.438;2023-05-07T11:04:33;2.03;;;1.07;;
3704;SDS011;1868;48.918;9.438;2023-05-07T11:10:23;1.93;;;0.90;;
3704;SDS011;1868;48.918;9.438;2023-05-07T11:13:41;1.00;;;1.00;;
3704;SDS011;1868;48.918;9.438;2023-05-07T11:16:30;2.30;;;1.07;;
3704;SDS011;1868;48.918;9.438;2023-05-07T11:19:11;1.10;;;1.00;;
3704;SDS011;1868;48.918;9.438;2023-05-07T11:21:46;1.60;;;0.90;;
3704;SDS011;1868;48.918;9.438;2023-05-07T11:24:26;4.93;;;4.47;;
3704;SDS011;1868;48.918;9.438;2023-05-07T11:27:13;1.60;;;1.03;;
3704;SDS011;1868;48.918;9.438;2023-05-07T11:29:53;0.73;;;0.73;;
3704;SDS011;1868;48.918;9.438;2023-05-07T11:32:24;1.10;;;1.00;;
3704;SDS011;1868;48.918;9.438;2023-05-07T11:34:57;1.20;;;0.80;;
3704;SDS011;1868;48.918;9.438;2023-05-07T11:37:30;1.77;;;0.83;;
3704;SDS011;1868;48.918;9.438;2023-05-07T11:40:05;3.70;;;0.97;;
3704;SDS011;1868;48.918;9.438;2023-05-07T11:42:38;0.90;;;0.90;;
3704;SDS011;1868;48.918;9.438;2023-05-07T11:45:11;1.23;;;0.87;;
3704;SDS011;1868;48.918;9.438;2023-05-07T11:47:52;2.10;;;1.10;;
3704;SDS011;1868;48.918;9.438;2023-05-07T11:50:22;0.93;;;0.93;;
3704;SDS011;1868;48.918;9.438;2023-05-07T11:53:00;2.83;;;1.30;;
3704;SDS011;1868;48.918;9.438;2023-05-07T11:55:41;1.67;;;1.13;;
3704;SDS011;1868;48.918;9.438;2023-05-07T11:58:20;1.27;;;1.17;;
3704;SDS011;1868;48.918;9.438;2023-05-07T12:00:52;1.43;;;0.93;;
3704;SDS011;1868;48.918;9.438;2023-05-07T12:03:22;1.33;;;1.23;;
3704;SDS011;1868;48.918;9.438;2023-05-07T12:05:53;1.23;;;0.83;;
3704;SDS011;1868;48.918;9.438;2023-05-07T12:08:23;1.13;;;1.03;;
3704;SDS011;1868;48.918;9.438;2023-05-07T12:10:52;0.90;;;0.90;;
3704;SDS011;1868;48.918;9.438;2023-05-07T12:13:24;1.03;;;0.93;;
3704;SDS011;1868;48.918;9.438;2023-05-07T12:15:55;0.93;;;0.80;;
3704;SDS011;1868;48.918;9.438;2023-05-07T12:18:29;2.20;;;1.07;;
3704;SDS011;1868;48.918;9.438;2023-05-07T12:20:59;1.03;;;0.83;;
3704;SDS011;1868;48.918;9.438;2023-05-07T12:23:30;0.80;;;0.77;;
3704;SDS011;1868;48.918;9.438;2023-05-07T12:26:00;1.13;;;1.03;;
3704;SDS011;1868;48.918;9.438;2023-05-07T12:28:36;1.83;;;1.10;;
3704;SDS011;1868;48.918;9.438;2023-05-07T12:31:09;2.87;;;1.20;;
3704;SDS011;1868;48.918;9.438;2023-05-07T12:33:38;1.03;;;1.03;;
3704;SDS011;1868;48.918;9.438;2023-05-07T12:36:11;0.80;;;0.80;;
3704;SDS011;1868;48.918;9.438;2023-05-07T12:38:44;1.00;;;1.00;;
3704;SDS011;1868;48.918;9.438;2023-05-07T12:41:13;1.00;;;0.90;;
3704;SDS011;1868;48.918;9.438;2023-05-07T12:43:44;1.60;;;1.10;;
3704;SDS011;1868;48.918;9.438;2023-05-07T12:46:16;1.30;;;1.17;;
3704;SDS011;1868;48.918;9.438;2023-05-07T12:48:46;1.57;;;1.00;;
3704;SDS011;1868;48.918;9.438;2023-05-07T12:51:16;4.83;;;1.17;;
3704;SDS011;1868;48.918;9.438;2023-05-07T12:53:46;1.37;;;1.00;;
3704;SDS011;1868;48.918;9.438;2023-05-07T12:56:15;2.63;;;1.50;;
3704;SDS011;1868;48.918;9.438;2023-05-07T12:58:44;4.23;;;1.70;;
3704;SDS011;1868;48.918;9.438;2023-05-07T13:01:14;1.10;;;1.00;;
3704;SDS011;1868;48.918;9.438;2023-05-07T13:03:47;5.83;;;1.93;;
3704;SDS011;1868;48.918;9.438;2023-05-07T13:06:18;1.93;;;1.73;;
3704;SDS011;1868;48.918;9.438;2023-05-07T13:08:49;2.10;;;1.80;;
3704;SDS011;1868;48.918;9.438;2023-05-07T13:11:22;6.20;;;1.83;;
3704;SDS011;1868;48.918;9.438;2023-05-07T13:13:51;1.57;;;1.47;;
3704;SDS011;1868;48.918;9.438;2023-05-07T13:16:20;3.93;;;1.40;;
3704;SDS011;1868;48.918;9.438;2023-05-07T13:18:49;2.70;;;1.37;;
3704;SDS011;1868;48.918;9.438;2023-05-07T13:21:19;1.37;;;1.17;;
3704;SDS011;1868;48.918;9.438;2023-05-07T13:23:49;9.63;;;1.77;;
3704;SDS011;1868;48.918;9.438;2023-05-07T13:26:18;1.37;;;1.20;;
3704;SDS011;1868;48.918;9.438;2023-05-07T13:28:52;4.23;;;1.37;;
3704;SDS011;1868;48.918;9.438;2023-05-07T13:31:21;1.77;;;1.10;;
3704;SDS011;1868;48.918;9.438;2023-05-07T13:33:51;1.23;;;1.13;;
3704;SDS011;1868;48.918;9.438;2023-05-07T13:36:22;2.70;;;2.00;;
3704;SDS011;1868;48.918;9.438;2023-05-07T13:38:54;1.63;;;1.27;;
3704;SDS011;1868;48.918;9.438;2023-05-07T13:41:25;1.90;;;1.27;;
3704;SDS011;1868;48.918;9.438;2023-05-07T13:43:55;4.57;;;1.60;;
3704;SDS011;1868;48.918;9.438;2023-05-07T13:46:27;2.80;;;1.50;;
3704;SDS011;1868;48.918;9.438;2023-05-07T13:48:56;1.63;;;1.23;;
3704;SDS011;1868;48.918;9.438;2023-05-07T13:51:25;6.70;;;1.70;;
3704;SDS011;1868;48.918;9.438;2023-05-07T13:53:55;5.33;;;1.60;;
3704;SDS011;1868;48.918;9.438;2023-05-07T13:56:24;3.90;;;1.90;;
3704;SDS011;1868;48.918;9.438;2023-05-07T13:58:54;4.03;;;2.03;;
3704;SDS011;1868;48.918;9.438;2023-05-07T14:01:26;9.10;;;2.40;;
3704;SDS011;1868;48.918;9.438;2023-05-07T14:03:55;5.53;;;1.50;;
3704;SDS011;1868;48.918;9.438;2023-05-07T14:06:26;2.83;;;1.80;;
3704;SDS011;1868;48.918;9.438;2023-05-07T14:08:56;5.17;;;2.00;;
3704;SDS011;1868;48.918;9.438;2023-05-07T14:11:26;3.40;;;1.80;;
3704;SDS011;1868;48.918;9.438;2023-05-07T14:13:55;1.37;;;1.20;;
3704;SDS011;1868;48.918;9.438;2023-05-07T14:16:25;10.53;;;3.00;;
3704;SDS011;1868;48.918;9.438;2023-05-07T14:18:55;2.13;;;1.93;;
3704;SDS011;1868;48.918;9.438;2023-05-07T14:21:24;3.13;;;2.00;;
3704;SDS011;1868;48.918;9.438;2023-05-07T14:23:53;9.23;;;1.53;;
3704;SDS011;1868;48.918;9.438;2023-05-07T14:26:24;4.57;;;1.70;;
3704;SDS011;1868;48.918;9.438;2023-05-07T14:28:57;1.43;;;1.20;;
3704;SDS011;1868;48.918;9.438;2023-05-07T14:31:26;1.93;;;1.67;;
3704;SDS011;1868;48.918;9.438;2023-05-07T14:33:55;4.63;;;2.07;;
3704;SDS011;1868;48.918;9.438;2023-05-07T14:36:25;5.40;;;2.00;;
3704;SDS011;1868;48.918;9.438;2023-05-07T14:38:56;5.60;;;2.80;;
3704;SDS011;1868;48.918;9.438;2023-05-07T14:41:29;12.40;;;2.37;;
3704;SDS011;1868;48.918;9.438;2023-05-07T14:43:59;6.43;;;2.10;;
3704;SDS011;1868;48.918;9.438;2023-05-07T14:46:30;5.50;;;2.27;;
3704;SDS011;1868;48.918;9.438;2023-05-07T14:48:59;7.07;;;1.87;;
3704;SDS011;1868;48.918;9.438;2023-05-07T14:51:29;3.40;;;1.70;;
3704;SDS011;1868;48.918;9.438;2023-05-07T14:53:59;1.40;;;1.00;;
3704;SDS011;1868;48.918;9.438;2023-05-07T14:56:31;2.30;;;1.40;;
3704;SDS011;1868;48.918;9.438;2023-05-07T14:59:00;1.27;;;0.97;;
3704;SDS011;1868;48.918;9.438;2023-05-07T15:01:29;3.63;;;1.40;;
3704;SDS011;1868;48.918;9.438;2023-05-07T15:03:58;3.97;;;1.50;;
3704;SDS011;1868;48.918;9.438;2023-05-07T15:06:32;1.60;;;1.27;;
3704;SDS011;1868;48.918;9.438;2023-05-07T15:09:01;2.73;;;1.33;;
3704;SDS011;1868;48.918;9.438;2023-05-07T15:11:32;2.60;;;1.20;;
3704;SDS011;1868;48.918;9.438;2023-05-07T15:14:02;1.63;;;1.03;;
3704;SDS011;1868;48.918;9.438;2023-05-07T15:16:31;2.50;;;1.37;;
3704;SDS011;1868;48.918;9.438;2023-05-07T15:19:00;1.73;;;1.00;;
3704;SDS011;1868;48.918;9.438;2023-05-07T15:21:29;1.57;;;1.40;;
3704;SDS011;1868;48.918;9.438;2023-05-07T15:24:01;1.23;;;1.13;;
3704;SDS011;1868;48.918;9.438;2023-05-07T15:26:32;2.50;;;0.90;;
3704;SDS011;1868;48.918;9.438;2023-05-07T15:29:01;3.77;;;1.33;;
3704;SDS011;1868;48.918;9.438;2023-05-07T15:31:34;1.60;;;1.37;;
3704;SDS011;1868;48.918;9.438;2023-05-07T15:34:06;1.70;;;1.20;;
3704;SDS011;1868;48.918;9.438;2023-05-07T15:36:35;1.53;;;1.30;;
3704;SDS011;1868;48.918;9.438;2023-05-07T15:39:04;1.93;;;1.80;;
3704;SDS011;1868;48.918;9.438;2023-05-07T15:41:34;2.00;;;0.90;;
3704;SDS011;1868;48.918;9.438;2023-05-07T15:44:04;1.40;;;1.30;;
3704;SDS011;1868;48.918;9.438;2023-05-07T15:46:33;8.23;;;1.60;;
3704;SDS011;1868;48.918;9.438;2023-05-07T15:49:02;1.40;;;1.30;;